This is the latest recevied weather packets stored in our database for station/object EA2DXT-10. If no packets are shown the sender has not sent any weather packets the latest 10 day(s).
| Time | Temp. | Humidity | Pressure | Rain* | Wind** | Luminosity | Snow |
|---|---|---|---|---|---|---|---|
| 1777442062 | 11.11° C | 83% | 938.4 hPa | - | - | - | - |
| 1777442034 | 12.78° C | 83% | 940.8 hPa | - | - | - | - |
| 1777441115 | 12.78° C | 84% | 940.8 hPa | - | - | - | - |
| 1777441062 | 12.78° C | 83% | 944.9 hPa | - | - | - | - |
| 1777441044 | 12.78° C | 84% | 940.8 hPa | - | - | - | - |
| 1777440981 | 12.78° C | 83% | 940.8 hPa | - | - | - | - |
| 1777440931 | 12.22° C | 83% | 940.7 hPa | - | - | - | - |
| 1777440877 | 12.22° C | 83% | 940.7 hPa | - | - | - | - |
| 1777440002 | 11.11° C | 82% | 938.5 hPa | - | - | - | - |
| 1777439976 | 12.78° C | 82% | 940.8 hPa | - | - | - | - |
| 1777439963 | 11.11° C | 82% | 938.5 hPa | - | - | - | - |
| 1777439062 | 12.78° C | 82% | 943.1 hPa | - | - | - | - |
| 1777439045 | 12.78° C | 82% | 940.6 hPa | - | - | - | - |
| 1777439032 | 12.78° C | 82% | 940.6 hPa | - | - | - | - |
| 1777438132 | 12.78° C | 82% | 940.7 hPa | - | - | - | - |
| 1777438103 | 7.22° C | 81% | 931.9 hPa | - | - | - | - |
| 1777437228 | 12.78° C | 82% | 940.7 hPa | - | - | - | - |
| 1777437203 | 11.67° C | 82% | 938.7 hPa | - | - | - | - |
| 1777437190 | 12.78° C | 82% | 940.7 hPa | - | - | - | - |
| 1777436289 | 12.78° C | 82% | 940.8 hPa | - | - | - | - |
| 1777436270 | 12.78° C | 82% | 940.7 hPa | - | - | - | - |
| 1777436252 | 12.78° C | 82% | 940.8 hPa | - | - | - | - |
| 1777436239 | 12.78° C | 81% | 940.8 hPa | - | - | - | - |
| 1777435338 | 12.78° C | 82% | 943.5 hPa | - | - | - | - |
| 1777435320 | 6.11° C | 81% | 929.4 hPa | - | - | - | - |
* Rain since midnight (hover to see other rain measurements)
** Current wind speed in m/s (hover to see current wind gust speed)